Terminal Aerodrome Forecast
Issued by NWS Upton, NY

Home | Current Version | Previous Version | Text Only | Print | Product List | Glossary On
Versions: 1 2 3 4 5 6 7 8 9 10 11 12 13 14 15 16 17 18 19 20 21 22 23 24 25 26 27 28 29 30
571
FTUS41 KOKX 101740
TAFEWR
TAF
KEWR 101740Z 1018/1124 28011G17KT P6SM BKN050
     FM110000 29009KT P6SM SCT050
     FM110600 29006KT P6SM SCT250
     FM111200 30004KT P6SM OVC120
     FM111600 22005KT P6SM SCT040 OVC060
     FM112000 20007KT 3SM -SN BR OVC035=

USA.gov is the U.S. government's official web portal to all federal, state and local government web resources and services.